Time;durP1;ratioP1;P1;durP2;ratioP2;P2;SDS_P1;SDS_P2;PMS_P1;PMS_P2;Temp;Humidity;BMP_temperature;BMP_pressure;BME280_temperature;BME280_humidity;BME280_pressure;Samples;Min_cycle;Max_cycle;Signal;HPM_P1;HPM_P2
2022/06/16 00:01:31;;;;;;;5.07;2.80;;;16.60;99.90;;;-144.05;46.72;125687.94;6157483;23;20002;-89
2022/06/16 00:03:57;;;;;;;4.40;2.72;;;16.60;99.90;;;-144.05;46.60;125687.94;6157205;23;20438;-88
2022/06/16 00:06:23;;;;;;;6.25;2.88;;;16.60;99.90;;;-144.05;46.81;125687.94;6156140;23;20040;-88
2022/06/16 00:08:49;;;;;;;6.22;2.55;;;16.50;99.90;;;-144.05;46.95;125687.94;6155757;23;20060;-88
2022/06/16 00:11:20;;;;;;;7.43;3.03;;;16.50;99.90;;;-144.05;46.80;125687.94;6156896;23;20001;-88
2022/06/16 00:13:49;;;;;;;5.97;3.38;;;16.40;99.90;;;-144.05;47.15;125687.94;6155794;23;20012;-87
2022/06/16 00:16:15;;;;;;;5.57;2.97;;;16.40;99.90;;;-144.05;46.96;125687.94;6166473;23;19993;-89
2022/06/16 00:18:42;;;;;;;7.32;2.95;;;16.40;99.90;;;-144.05;46.94;125687.94;6179048;23;20008;-88
2022/06/16 00:21:10;;;;;;;6.45;3.03;;;16.30;99.90;;;-144.05;47.08;125687.94;6156712;23;20009;-88
2022/06/16 00:23:37;;;;;;;7.18;2.72;;;16.20;99.90;;;-144.05;47.14;125687.94;6156523;23;20013;-88
2022/06/16 00:26:11;;;;;;;5.68;2.90;;;16.20;99.90;;;-144.05;47.05;125687.94;6181382;23;20013;-87
2022/06/16 00:28:40;;;;;;;7.97;2.83;;;16.20;99.90;;;-144.05;47.12;125687.94;6181801;23;20005;-88
2022/06/16 00:31:10;;;;;;;4.15;2.60;;;16.20;99.90;;;-144.05;46.96;125687.94;6181030;23;20016;-87
2022/06/16 00:33:37;;;;;;;5.43;2.72;;;16.10;99.90;;;-144.05;46.57;125687.94;6156403;23;20009;-87
2022/06/16 00:36:03;;;;;;;4.35;2.55;;;16.10;99.90;;;-144.05;46.84;125687.94;6156763;23;20420;-88
2022/06/16 00:38:29;;;;;;;8.27;3.15;;;16.00;99.90;;;-144.05;46.79;125687.94;6156016;23;20014;-87
2022/06/16 00:40:56;;;;;;;4.78;3.10;;;16.00;99.90;;;-144.05;46.55;125687.94;6156263;23;20032;-87
2022/06/16 00:43:23;;;;;;;8.63;2.22;;;15.90;99.90;;;-144.05;46.74;125687.94;6157494;23;20009;-87
2022/06/16 00:46:02;;;;;;;4.55;2.20;;;15.90;99.90;;;-144.05;46.79;125687.94;6156874;23;20350;-87
2022/06/16 00:48:38;;;;;;;4.13;2.53;;;15.90;99.90;;;-144.05;46.33;125687.94;6182548;23;20009;-87
2022/06/16 00:51:27;;;;;;;5.13;2.50;;;15.80;99.90;;;-144.05;46.51;125687.94;6156683;23;20087;-91
2022/06/16 00:54:04;;;;;;;9.13;2.90;;;15.80;99.90;;;-144.05;46.40;125687.94;6156772;23;20016;-88
2022/06/16 00:56:31;;;;;;;7.63;2.60;;;15.80;99.90;;;-144.05;46.30;125687.94;6158414;23;20005;-88
2022/06/16 00:59:04;;;;;;;5.15;2.60;;;15.80;99.90;;;-144.05;46.38;125687.94;6158698;23;20009;-91
2022/06/16 01:01:31;;;;;;;4.05;2.65;;;15.70;99.90;;;-144.05;46.06;125687.94;6160069;23;20009;-90
2022/06/16 01:06:45;;;;;;;5.70;2.70;;;15.70;99.90;;;-144.05;46.26;125687.94;6160470;23;20068;-90
2022/06/16 01:09:21;;;;;;;7.70;2.35;;;15.60;99.90;;;-144.05;46.09;125687.94;6159530;23;20037;-89
2022/06/16 01:16:22;;;;;;;4.15;2.67;;;15.60;99.90;;;-144.05;46.54;125687.94;6162721;23;20044;-89
2022/06/16 01:19:49;;;;;;;8.10;2.75;;;15.50;99.90;;;-144.05;46.87;125687.94;6160207;23;20013;-90
2022/06/16 01:23:03;;;;;;;6.93;2.88;;;15.40;99.90;;;-144.05;46.37;125687.94;6161597;23;20009;-90
2022/06/16 01:26:22;;;;;;;4.65;2.83;;;15.40;99.90;;;-144.05;46.32;125687.94;6161756;23;20328;-90
2022/06/16 01:29:38;;;;;;;9.85;3.15;;;15.40;99.90;;;-144.05;46.64;125687.94;6173837;23;20002;-91
2022/06/16 01:32:18;;;;;;;7.93;3.25;;;15.40;99.90;;;-144.05;46.55;125687.94;6176973;23;19994;-89
2022/06/16 01:35:36;;;;;;;6.13;2.80;;;15.40;99.90;;;-144.05;46.83;125687.94;6169480;23;20169;-90
2022/06/16 01:38:18;;;;;;;;;;;15.30;99.90;;;-144.05;46.79;125687.94;6159799;23;20012;-88
2022/06/16 01:41:03;;;;;;;8.95;2.95;;;15.40;99.90;;;-144.05;46.80;125687.94;6160383;23;19928;-89
2022/06/16 01:43:55;;;;;;;3.95;2.70;;;15.30;99.90;;;-144.05;46.84;125687.94;6160281;23;20010;-90
2022/06/16 01:46:34;;;;;;;5.60;2.78;;;15.40;99.90;;;-144.05;46.66;125687.94;6159353;23;20033;-90
2022/06/16 01:49:38;;;;;;;7.13;2.72;;;15.40;99.90;;;-144.05;46.64;125687.94;6159764;23;20005;-89
2022/06/16 01:52:22;;;;;;;5.45;2.92;;;15.30;99.90;;;-144.05;46.83;125687.94;6146004;23;20009;-89
2022/06/16 01:55:03;;;;;;;3.67;2.55;;;15.30;99.90;;;-144.05;46.90;125687.94;6184498;23;20105;-91
2022/06/16 01:57:43;;;;;;;5.45;2.67;;;15.20;99.90;;;-144.05;47.41;125687.94;6160148;23;20014;-88
2022/06/16 02:00:23;;;;;;;3.58;2.65;;;15.20;99.90;;;-144.05;47.53;125687.94;6159151;23;20510;-88
2022/06/16 02:02:58;;;;;;;5.90;2.58;;;15.20;99.90;;;-144.05;47.80;125687.94;6158800;23;20040;-89
2022/06/16 02:05:42;;;;;;;5.35;2.60;;;15.20;99.90;;;-144.05;48.14;125687.94;6159463;23;20013;-88
2022/06/16 02:08:19;;;;;;;8.60;2.90;;;15.10;99.90;;;-144.05;48.47;125687.94;6184198;23;20423;-88
2022/06/16 02:11:04;;;;;;;5.93;2.97;;;15.00;99.90;;;-144.05;48.69;125687.94;6160081;23;20376;-89
2022/06/16 02:13:44;;;;;;;6.43;3.05;;;15.00;99.90;;;-144.05;48.89;125687.94;6160137;23;20006;-88
2022/06/16 02:16:31;;;;;;;8.13;3.60;;;15.00;99.90;;;-144.05;48.83;125687.94;6159301;23;20032;-89
2022/06/16 02:19:04;;;;;;;4.45;2.92;;;15.00;99.90;;;-144.05;48.93;125687.94;6158645;23;20009;-88
2022/06/16 02:21:43;;;;;;;6.07;3.85;;;14.90;99.90;;;-144.05;48.70;125687.94;6192757;23;20001;-90
2022/06/16 02:24:15;;;;;;;4.80;2.92;;;15.00;99.90;;;-144.05;48.92;125687.94;6206155;23;20013;-88
2022/06/16 02:26:44;;;;;;;8.02;3.05;;;15.00;99.90;;;-144.05;49.04;125687.94;6160024;23;20383;-89
2022/06/16 02:29:37;;;;;;;6.38;3.20;;;15.00;99.90;;;-144.05;49.17;125687.94;6160422;23;20009;-88
2022/06/16 02:32:51;;;;;;;4.97;3.20;;;15.00;99.90;;;-144.05;48.85;125687.94;6160145;23;20010;-90
2022/06/16 02:36:20;;;;;;;6.25;2.63;;;15.00;99.90;;;-144.05;48.75;125687.94;6159696;23;20009;-89
2022/06/16 02:39:03;;;;;;;5.68;3.42;;;15.00;99.90;;;-144.05;48.59;125687.94;6173454;23;20444;-89
2022/06/16 02:42:01;;;;;;;4.35;3.08;;;14.90;99.90;;;-144.05;48.28;125687.94;6159627;23;20435;-88
2022/06/16 02:45:13;;;;;;;7.07;3.08;;;14.90;99.90;;;-144.05;48.37;125687.94;6160410;23;20009;-90
2022/06/16 02:48:06;;;;;;;6.70;3.10;;;14.90;99.90;;;-144.05;48.65;125687.94;6159760;23;20014;-88
2022/06/16 02:51:33;;;;;;;6.55;3.00;;;14.80;99.90;;;-144.05;48.62;125687.94;6184397;23;20032;-90
2022/06/16 02:54:20;;;;;;;5.13;2.88;;;14.80;99.90;;;-144.05;48.81;125687.94;6089305;23;20009;-90
2022/06/16 02:57:46;;;;;;;7.55;3.10;;;14.70;99.90;;;-144.05;48.95;125687.94;6185937;23;20060;-90
2022/06/16 03:00:28;;;;;;;7.00;3.15;;;14.60;99.90;;;-144.05;49.10;125687.94;6071755;23;20007;-89
2022/06/16 03:02:55;;;;;;;5.00;3.15;;;14.60;99.90;;;-144.05;49.28;125687.94;6173539;23;20002;-88
2022/06/16 03:05:22;;;;;;;9.57;3.28;;;14.60;99.90;;;-144.05;49.37;125687.94;6183838;23;20018;-87
2022/06/16 03:07:48;;;;;;;5.40;3.00;;;14.60;99.90;;;-144.05;49.41;125687.94;6159931;23;20006;-89
2022/06/16 03:13:03;;;;;;;7.50;3.80;;;14.50;99.90;;;-144.05;49.75;125687.94;6160819;23;20036;-89
2022/06/16 03:15:28;;;;;;;7.78;2.80;;;14.40;99.90;;;-144.05;49.95;125687.94;6159537;23;20017;-90
2022/06/16 03:17:54;;;;;;;10.10;3.38;;;14.40;99.90;;;-144.05;49.91;125687.94;6159649;23;20408;-89
2022/06/16 03:20:20;;;;;;;6.75;3.25;;;14.40;99.90;;;-144.05;49.57;125687.94;6159495;23;20006;-88
2022/06/16 03:22:46;;;;;;;6.15;2.92;;;14.40;99.90;;;-144.05;49.43;125687.94;6160292;23;20016;-88
2022/06/16 03:25:12;;;;;;;6.10;3.25;;;14.40;99.90;;;-144.05;49.55;125687.94;6160143;23;20035;-88
2022/06/16 03:27:38;;;;;;;5.57;3.05;;;14.40;99.90;;;-144.05;49.76;125687.94;6184789;23;20014;-89
2022/06/16 03:30:05;;;;;;;7.05;3.40;;;14.40;99.90;;;-144.05;50.00;125687.94;6159962;23;20096;-89
2022/06/16 03:32:31;;;;;;;11.73;4.03;;;14.30;99.90;;;-144.05;49.95;125687.94;6163528;23;20052;-90
2022/06/16 03:34:57;;;;;;;7.43;3.20;;;14.30;99.90;;;-144.05;50.10;125687.94;6166139;23;20321;-88
2022/06/16 03:37:24;;;;;;;4.53;2.85;;;14.30;99.90;;;-144.05;49.91;125687.94;6165702;23;20009;-89
2022/06/16 03:39:50;;;;;;;5.82;3.25;;;14.30;99.90;;;-144.05;50.36;125687.94;6166400;23;20016;-90
2022/06/16 03:42:16;;;;;;;7.22;3.30;;;14.30;99.90;;;-144.05;50.41;125687.94;6194974;23;20029;-88
2022/06/16 03:44:42;;;;;;;9.02;2.97;;;14.20;99.90;;;-144.05;50.70;125687.94;6166103;23;20416;-88
2022/06/16 03:47:09;;;;;;;5.90;2.70;;;14.30;99.90;;;-144.05;50.58;125687.94;6166134;23;20408;-88
2022/06/16 03:49:35;;;;;;;6.72;3.13;;;14.30;99.90;;;-144.05;50.77;125687.94;6166353;23;20006;-90
2022/06/16 03:52:01;;;;;;;5.18;2.40;;;14.30;99.90;;;-144.05;50.58;125687.94;6166265;23;20057;-89
2022/06/16 03:54:27;;;;;;;5.55;3.03;;;14.30;99.90;;;-144.05;50.48;125687.94;6165576;23;20077;-89
2022/06/16 03:56:53;;;;;;;8.27;3.03;;;14.30;99.90;;;-144.05;50.45;125687.94;6165896;23;20036;-89
2022/06/16 03:59:21;;;;;;;7.55;3.30;;;14.30;99.90;;;-144.05;50.96;125687.94;6190569;23;20336;-89
2022/06/16 04:01:48;;;;;;;7.15;2.92;;;14.30;99.90;;;-144.05;50.63;125687.94;6167272;23;20005;-87
2022/06/16 04:04:14;;;;;;;3.35;2.53;;;14.30;99.90;;;-144.05;50.78;125687.94;6164933;23;20006;-89
2022/06/16 04:06:40;;;;;;;6.78;2.92;;;14.20;99.90;;;-144.05;51.21;125687.94;6164754;23;20010;-89
2022/06/16 04:09:06;;;;;;;4.82;3.10;;;14.20;99.90;;;-144.05;51.38;125687.94;6165835;23;20012;-87
2022/06/16 04:11:32;;;;;;;5.88;3.22;;;14.10;99.90;;;-144.05;51.24;125687.94;6165153;23;20012;-90
2022/06/16 04:14:08;;;;;;;6.90;2.80;;;14.10;99.90;;;-144.05;51.44;125687.94;6164743;23;20014;-90
2022/06/16 04:16:43;;;;;;;4.95;2.72;;;14.10;99.90;;;-144.05;51.50;125687.94;6162947;23;20010;-89
2022/06/16 04:19:15;;;;;;;7.68;3.10;;;14.10;99.90;;;-144.05;51.65;125687.94;6161133;23;20010;-89
2022/06/16 04:21:46;;;;;;;6.68;3.13;;;14.10;99.90;;;-144.05;51.14;125687.94;6164002;23;20005;-90
2022/06/16 04:24:14;;;;;;;5.82;3.08;;;14.20;99.90;;;-144.05;51.42;125687.94;6161458;23;20056;-88
2022/06/16 04:26:41;;;;;;;7.15;3.55;;;14.20;99.90;;;-144.05;51.13;125687.94;6162253;23;20013;-88
2022/06/16 04:29:11;;;;;;;8.95;3.42;;;14.30;99.90;;;-144.05;50.79;125687.94;6172563;23;20005;-87
2022/06/16 04:31:39;;;;;;;8.50;3.17;;;14.30;99.90;;;-144.05;50.43;125687.94;6168946;23;20037;-89
2022/06/16 04:34:06;;;;;;;5.50;3.10;;;14.30;99.90;;;-144.05;49.67;125687.94;6167388;23;20017;-91
2022/06/16 04:36:32;;;;;;;7.18;3.42;;;14.50;99.90;;;-144.05;49.46;125687.94;6164909;23;20424;-90
2022/06/16 04:39:00;;;;;;;7.60;3.28;;;14.40;99.90;;;-144.05;49.40;125687.94;6164921;23;20063;-89
2022/06/16 04:41:26;;;;;;;8.50;3.22;;;14.40;99.90;;;-144.05;49.67;125687.94;6167706;23;20016;-91
2022/06/16 04:43:52;;;;;;;8.73;3.53;;;14.50;99.90;;;-144.05;49.55;125687.94;6165159;23;20017;-88
2022/06/16 04:46:21;;;;;;;5.65;3.38;;;14.50;99.90;;;-144.05;49.22;125687.94;6165373;23;20317;-89
2022/06/16 04:48:48;;;;;;;6.57;3.83;;;14.70;99.90;;;-144.05;48.89;125687.94;6166067;23;20061;-89
2022/06/16 04:51:15;;;;;;;7.18;3.00;;;14.80;99.90;;;-144.05;48.77;125687.94;6164094;23;20006;-89
2022/06/16 04:53:42;;;;;;;11.07;3.25;;;14.90;99.90;;;-144.05;48.39;125687.94;6165249;23;20092;-88
2022/06/16 04:56:08;;;;;;;7.28;3.05;;;14.80;99.90;;;-144.05;48.78;125687.94;6164689;23;20009;-88
2022/06/16 04:58:34;;;;;;;5.75;2.60;;;14.80;99.90;;;-144.05;48.84;125687.94;6189849;23;20088;-89
2022/06/16 05:01:00;;;;;;;5.28;2.80;;;14.90;99.90;;;-144.05;49.17;125687.94;6164435;23;20351;-88
2022/06/16 05:03:28;;;;;;;5.18;2.58;;;15.10;99.90;;;-144.05;48.35;125687.94;6164430;23;20036;-88
2022/06/16 05:05:56;;;;;;;4.55;2.28;;;15.20;99.90;;;-144.05;47.59;125687.94;6166206;23;20001;-89
2022/06/16 05:08:23;;;;;;;5.93;2.65;;;15.40;99.90;;;-144.05;47.25;125687.94;6189747;23;20010;-87
2022/06/16 05:10:51;;;;;;;7.68;3.33;;;15.60;99.90;;;-144.05;46.47;125687.94;6164372;23;20044;-90
2022/06/16 05:13:19;;;;;;;7.00;3.10;;;15.80;99.90;;;-144.05;45.94;125687.94;6165405;23;20006;-88
2022/06/16 05:15:45;;;;;;;3.55;2.53;;;16.00;99.90;;;-144.05;45.42;125687.94;6162866;23;20009;-88
2022/06/16 05:18:13;;;;;;;7.15;2.60;;;16.20;99.90;;;-144.05;44.68;125687.94;6165848;23;20010;-89
2022/06/16 05:20:41;;;;;;;6.22;2.28;;;16.40;99.90;;;-144.05;44.35;125687.94;6188810;23;20033;-87
2022/06/16 05:23:12;;;;;;;4.10;2.40;;;16.60;99.90;;;-144.05;43.77;125687.94;6170828;23;20036;-89
2022/06/16 05:25:40;;;;;;;6.70;3.00;;;16.80;99.90;;;-144.05;43.08;125687.94;6170780;23;20069;-89
2022/06/16 05:28:09;;;;;;;6.82;2.80;;;16.90;99.90;;;-144.05;43.15;125687.94;6170045;23;20020;-88
2022/06/16 05:30:35;;;;;;;5.78;3.22;;;17.00;99.90;;;-144.05;42.32;125687.94;6171088;23;20006;-88
2022/06/16 05:33:01;;;;;;;5.38;3.08;;;17.00;99.90;;;-144.05;43.00;125687.94;6165747;23;20013;-88
2022/06/16 05:35:28;;;;;;;7.85;3.50;;;17.10;99.90;;;-144.05;42.53;125687.94;6172068;23;20057;-87
2022/06/16 05:37:54;;;;;;;8.25;3.17;;;17.20;99.90;;;-144.05;41.88;125687.94;6166188;23;20444;-89
2022/06/16 05:40:20;;;;;;;8.20;3.15;;;17.40;99.90;;;-144.05;42.42;125687.94;6192071;23;20013;-88
2022/06/16 05:42:46;;;;;;;7.57;3.13;;;17.40;99.90;;;-144.05;41.72;125687.94;6167714;23;20021;-89
2022/06/16 05:45:13;;;;;;;5.70;2.83;;;17.50;99.90;;;-144.05;41.45;125687.94;6186757;23;20332;-88
2022/06/16 05:47:40;;;;;;;4.82;3.00;;;17.60;99.90;;;-144.05;41.54;125687.94;6164019;23;20507;-88
2022/06/16 05:50:08;;;;;;;5.90;3.20;;;17.70;99.90;;;-144.05;41.45;125687.94;6165060;23;20005;-92
2022/06/16 05:52:34;;;;;;;5.50;2.67;;;17.80;99.90;;;-144.05;41.29;125687.94;6191012;23;20025;-88
2022/06/16 05:55:00;;;;;;;5.20;2.63;;;18.00;99.90;;;-144.05;41.24;125687.94;6190207;23;20032;-91
2022/06/16 05:57:27;;;;;;;4.47;2.53;;;18.10;99.90;;;-144.05;41.00;125687.94;6163659;23;20016;-90
2022/06/16 05:59:52;;;;;;;9.40;3.13;;;18.30;99.90;;;-144.05;40.30;125687.94;6188736;23;20056;-91
2022/06/16 06:02:21;;;;;;;5.43;2.70;;;18.50;99.90;;;-144.05;40.20;125687.94;6162497;23;20013;-89
2022/06/16 06:04:48;;;;;;;5.95;2.78;;;18.70;99.90;;;-144.05;39.79;125687.94;6164383;23;20006;-89
2022/06/16 06:07:15;;;;;;;5.53;3.33;;;18.80;99.90;;;-144.05;39.57;125687.94;6164818;23;20013;-89
2022/06/16 06:18:24;;;;;;;8.63;3.30;;;19.00;99.90;;;-144.05;39.67;125687.94;6164698;23;20538;-88
2022/06/16 06:20:51;;;;;;;6.03;2.97;;;19.10;99.90;;;-144.05;39.08;125687.94;6158887;23;20453;-89
2022/06/16 06:23:17;;;;;;;5.32;2.92;;;19.20;99.90;;;-144.05;39.08;125687.94;6160335;23;20451;-91
2022/06/16 06:26:11;;;;;;;7.35;2.47;;;19.50;99.90;;;-144.05;38.66;125687.94;6159353;23;20001;-90
2022/06/16 06:28:40;;;;;;;8.57;3.00;;;19.60;99.90;;;-144.05;38.86;125687.94;6158992;23;20005;-90
2022/06/16 06:31:06;;;;;;;8.48;3.15;;;19.80;99.90;;;-144.05;38.39;125687.94;6158592;23;20309;-89
2022/06/16 06:33:32;;;;;;;5.25;2.53;;;20.00;99.50;;;-144.05;38.78;125687.94;6202935;23;20033;-89
2022/06/16 06:36:00;;;;;;;5.28;2.78;;;19.80;99.90;;;-144.05;38.70;125687.94;6198529;23;20014;-90
2022/06/16 06:38:34;;;;;;;3.90;2.40;;;19.90;99.60;;;-144.05;38.46;125687.94;6160821;23;20061;-89
2022/06/16 06:41:05;;;;;;;6.10;2.22;;;20.10;99.20;;;-144.05;38.24;125687.94;6161235;23;20012;-90
2022/06/16 06:43:34;;;;;;;4.20;2.30;;;20.30;98.10;;;-144.05;38.04;125687.94;6160239;23;20013;-90
2022/06/16 06:46:00;;;;;;;6.00;2.20;;;20.20;97.00;;;-144.05;38.20;125687.94;6163638;23;20013;-88
2022/06/16 06:48:26;;;;;;;4.00;2.08;;;20.30;97.90;;;-144.05;37.73;125687.94;6163437;23;20010;-90
2022/06/16 06:50:52;;;;;;;4.55;2.00;;;20.60;96.00;;;-144.05;37.36;125687.94;6162331;23;20002;-91
2022/06/16 06:53:20;;;;;;;5.10;2.15;;;20.90;94.30;;;-144.05;37.19;125687.94;6161808;23;20058;-91
2022/06/16 06:59:37;;;;;;;3.75;1.88;;;21.40;92.80;;;-144.05;35.49;125687.94;6176970;23;20032;-89
2022/06/16 07:02:26;;;;;;;6.22;2.03;;;21.80;89.50;;;-144.05;35.02;125687.94;6190867;23;20005;-90
2022/06/16 07:04:58;;;;;;;3.95;1.95;;;21.90;85.40;;;-144.05;35.36;125687.94;6162591;23;20005;-91
2022/06/16 07:07:26;;;;;;;3.90;1.90;;;22.00;85.40;;;-144.05;34.83;125687.94;6159936;23;20096;-91
2022/06/16 07:09:54;;;;;;;4.40;1.75;;;22.20;84.00;;;-144.05;35.36;125687.94;6160964;23;20335;-89
2022/06/16 07:12:24;;;;;;;4.97;1.88;;;22.00;82.00;;;-144.05;35.46;125687.94;6159381;23;20061;-88
2022/06/16 07:14:51;;;;;;;5.20;1.70;;;21.90;83.70;;;-144.05;35.42;125687.94;6161388;23;20006;-87
2022/06/16 07:17:32;;;;;;;8.57;2.40;;;22.10;85.70;;;-144.05;35.13;125687.94;6163878;23;20009;-91
2022/06/16 07:20:30;;;;;;;6.30;2.10;;;22.40;84.00;;;-144.05;34.81;125687.94;6184192;23;20029;-90
2022/06/16 07:23:27;;;;;;;4.78;1.88;;;22.50;79.50;;;-144.05;34.10;125687.94;6148838;23;20009;-89
2022/06/16 07:25:58;;;;;;;;;;;22.70;79.20;;;-144.05;34.21;125687.94;6184518;23;20005;-89
2022/06/16 07:28:25;;;;;;;3.80;1.90;;;22.90;77.40;;;-144.05;34.20;125687.94;6159540;23;19936;-90
2022/06/16 07:30:56;;;;;;;6.05;2.13;;;23.10;79.20;;;-144.05;34.25;125687.94;6162367;23;20009;-88
2022/06/16 07:33:27;;;;;;;5.75;1.80;;;23.00;78.40;;;-144.05;33.76;125687.94;6163869;23;20056;-88
2022/06/16 07:35:59;;;;;;;3.95;1.80;;;23.40;77.10;;;-144.05;33.94;125687.94;6161676;23;20005;-89
2022/06/16 07:38:38;;;;;;;4.75;1.85;;;23.60;77.30;;;-144.05;32.61;125687.94;6160893;23;20080;-88
2022/06/16 07:43:54;;;;;;;3.83;1.92;;;23.90;70.80;;;-144.05;32.75;125687.94;6159965;23;20075;-89
2022/06/16 07:46:20;;;;;;;4.32;1.52;;;23.80;70.90;;;-144.05;32.59;125687.94;6158490;23;20048;-90
2022/06/16 07:48:46;;;;;;;6.65;1.90;;;23.80;70.50;;;-144.05;32.55;125687.94;6186016;23;20013;-90
2022/06/16 07:51:12;;;;;;;3.90;1.50;;;23.80;70.40;;;-144.05;32.38;125687.94;6183859;23;20006;-90
2022/06/16 07:53:38;;;;;;;4.38;1.60;;;23.90;70.00;;;-144.05;31.56;125687.94;6161357;23;20017;-91
2022/06/16 07:56:05;;;;;;;5.53;1.60;;;24.10;68.30;;;-144.05;31.58;125687.94;6161023;23;20019;-90
2022/06/16 07:58:44;;;;;;;6.80;1.75;;;24.10;67.90;;;-144.05;31.26;125687.94;6160028;23;20073;-89
2022/06/16 08:01:14;;;;;;;4.50;1.83;;;23.90;66.70;;;-144.05;31.81;125687.94;6184084;23;20087;-90
2022/06/16 08:04:15;;;;;;;;;;;;;;;;;;;;;
2022/06/16 08:06:45;;;;;;;4.53;1.50;;;23.80;67.40;;;-144.05;31.91;125687.94;6157316;23;20507;-89
2022/06/16 08:09:14;;;;;;;4.50;1.40;;;23.80;67.60;;;-144.05;31.84;125687.94;6180653;23;20010;-90
2022/06/16 08:12:03;;;;;;;4.35;1.60;;;23.80;67.80;;;-144.05;30.72;125687.94;6157024;23;20519;-86
2022/06/16 08:14:47;;;;;;;2.55;1.38;;;24.20;64.60;;;-144.05;30.11;125687.94;6185647;23;20013;-90
2022/06/16 08:18:16;;;;;;;6.63;1.58;;;24.20;61.80;;;-144.05;29.86;125687.94;6184016;23;20009;-89
2022/06/16 08:21:20;;;;;;;2.60;1.13;;;24.40;61.10;;;-144.05;28.80;125687.94;6165415;23;20061;-89
2022/06/16 08:24:29;;;;;;;;;;;;;;;;;;;;;
2022/06/16 08:27:30;;;;;;;3.88;1.40;;;24.60;59.70;;;-144.05;29.23;125687.94;6165613;23;20025;-88
2022/06/16 08:30:09;;;;;;;4.32;1.33;;;24.40;58.70;;;-144.05;29.50;125687.94;6162075;23;20447;-87
2022/06/16 08:33:02;;;;;;;4.15;1.50;;;24.30;59.20;;;-144.05;29.64;125687.94;6189086;23;20040;-91
2022/06/16 08:35:35;;;;;;;3.08;1.20;;;24.20;58.90;;;-144.05;29.10;125687.94;6165092;23;20017;-89
2022/06/16 08:38:03;;;;;;;6.45;1.60;;;24.60;58.10;;;-144.05;28.88;125687.94;6171522;23;20056;-86
2022/06/16 08:40:35;;;;;;;2.53;1.15;;;24.80;57.80;;;-144.05;28.89;125687.94;6182342;23;20017;-91
2022/06/16 08:43:26;;;;;;;2.72;1.63;;;25.00;58.00;;;-144.05;28.80;125687.94;6162249;23;20032;-89
2022/06/16 08:46:18;;;;;;;2.53;1.20;;;25.30;57.50;;;-144.05;28.44;125687.94;6162529;23;20012;-90
2022/06/16 08:49:45;;;;;;;1.98;0.90;;;25.60;56.00;;;-144.05;27.90;125687.94;6158711;23;20013;-89
2022/06/16 08:52:36;;;;;;;2.35;1.17;;;25.70;56.40;;;-144.05;27.34;125687.94;6188399;23;20065;-90
2022/06/16 08:55:38;;;;;;;3.17;1.35;;;26.00;54.20;;;-144.05;27.29;125687.94;6157851;23;20060;-89
2022/06/16 08:58:22;;;;;;;3.78;1.42;;;25.50;52.90;;;-144.05;27.31;125687.94;6157638;23;20040;-90
2022/06/16 09:01:07;;;;;;;2.15;1.02;;;25.50;53.30;;;-144.05;27.14;125687.94;6160040;23;20009;-89
2022/06/16 09:03:49;;;;;;;3.22;1.20;;;25.50;52.60;;;-144.05;27.01;125687.94;6183490;23;20020;-89
2022/06/16 09:06:53;;;;;;;2.78;1.10;;;25.40;52.80;;;-144.05;28.03;125687.94;6158149;23;20002;-88
2022/06/16 09:10:17;;;;;;;2.35;1.20;;;25.20;54.90;;;-144.05;28.35;125687.94;6183179;23;20009;-89
2022/06/16 09:13:40;;;;;;;2.15;1.25;;;25.20;54.90;;;-144.05;27.35;125687.94;6158879;23;20085;-89
2022/06/16 09:17:14;;;;;;;2.28;1.20;;;25.50;53.60;;;-144.05;27.37;125687.94;6157189;23;20009;-89
2022/06/16 09:20:13;;;;;;;3.22;0.82;;;25.60;53.10;;;-144.05;27.42;125687.94;6152878;23;20012;-90
2022/06/16 09:23:35;;;;;;;1.98;0.93;;;25.80;53.40;;;-144.05;26.45;125687.94;6158065;23;20013;-90
2022/06/16 09:26:11;;;;;;;5.05;1.35;;;26.00;51.10;;;-144.05;26.98;125687.94;6156849;23;20009;-90
2022/06/16 09:28:54;;;;;;;2.60;0.55;;;25.50;50.70;;;-144.05;27.41;125687.94;6155612;23;20100;-91
2022/06/16 09:34:18;;;;;;;3.42;0.90;;;25.20;51.80;;;-144.05;27.25;125687.94;6202278;23;20036;-87
2022/06/16 09:37:06;;;;;;;3.33;1.23;;;25.50;52.20;;;-144.05;26.36;125687.94;6199790;23;20005;-88
2022/06/16 09:39:43;;;;;;;3.72;1.20;;;26.00;51.40;;;-144.05;27.37;125687.94;6202620;23;20005;-89
2022/06/16 09:42:37;;;;;;;3.42;0.82;;;25.30;52.00;;;-144.05;26.90;125687.94;6205735;23;20005;-86
2022/06/16 09:45:33;;;;;;;1.92;0.80;;;25.40;51.60;;;-144.05;27.04;125687.94;6208107;23;20013;-87
2022/06/16 09:48:19;;;;;;;2.60;1.20;;;25.50;51.10;;;-144.05;26.83;125687.94;6193225;23;20320;-89
2022/06/16 09:51:13;;;;;;;1.38;1.00;;;25.70;51.10;;;-144.05;26.85;125687.94;6206336;23;20005;-90
2022/06/16 09:53:49;;;;;;;1.50;0.93;;;26.00;51.00;;;-144.05;26.03;125687.94;6206013;23;20032;-89
2022/06/16 09:56:33;;;;;;;;;;;26.10;49.30;;;-144.05;26.63;125687.94;6206604;23;20008;-88
2022/06/16 09:59:08;;;;;;;3.10;1.40;;;26.30;51.80;;;-144.05;26.29;125687.94;6206578;23;19931;-89
2022/06/16 10:02:11;;;;;;;;;;;26.70;50.80;;;-144.05;25.46;125687.94;6207146;23;20061;-89
2022/06/16 10:04:37;;;;;;;2.55;0.93;;;26.80;48.70;;;-144.05;26.24;125687.94;6146452;23;20336;-87
2022/06/16 10:07:41;;;;;;;2.67;1.00;;;27.00;50.00;;;-144.05;25.70;125687.94;6189094;23;20005;-87
2022/06/16 10:10:23;;;;;;;2.33;1.02;;;27.10;49.00;;;-144.05;25.56;125687.94;6189623;23;20009;-86
2022/06/16 10:13:33;;;;;;;3.55;0.80;;;27.30;48.60;;;-144.05;25.71;125687.94;6202219;23;20096;-88
2022/06/16 10:16:13;;;;;;;3.10;0.90;;;27.10;49.50;;;-144.05;25.56;125687.94;6203500;23;20079;-89
2022/06/16 10:18:42;;;;;;;2.25;1.10;;;27.10;48.50;;;-144.05;25.67;125687.94;6200628;23;20403;-85
2022/06/16 10:21:12;;;;;;;2.85;0.90;;;26.90;48.30;;;-144.05;26.61;125687.94;6197284;23;20063;-87
2022/06/16 10:23:53;;;;;;;2.20;0.77;;;26.70;50.00;;;-144.05;26.17;125687.94;6195095;23;20442;-87
2022/06/16 10:26:19;;;;;;;2.28;0.80;;;26.90;50.00;;;-144.05;26.22;125687.94;6192333;23;20009;-89
2022/06/16 10:29:27;;;;;;;3.83;0.80;;;27.00;50.90;;;-144.05;26.05;125687.94;6191765;23;20005;-87
2022/06/16 10:31:58;;;;;;;1.30;0.47;;;27.30;49.30;;;-144.05;26.12;125687.94;6212897;23;20012;-86
2022/06/16 10:34:40;;;;;;;1.48;0.80;;;27.20;49.30;;;-144.05;25.95;125687.94;6188890;23;20005;-87
2022/06/16 10:37:28;;;;;;;1.58;0.60;;;27.00;48.70;;;-144.05;26.48;125687.94;6212420;23;20009;-87
2022/06/16 10:40:06;;;;;;;2.85;0.95;;;26.60;49.70;;;-144.05;26.84;125687.94;6187915;23;20040;-86
2022/06/16 10:42:48;;;;;;;1.77;0.80;;;26.50;50.50;;;-144.05;26.38;125687.94;6187855;23;20009;-88
2022/06/16 10:45:31;;;;;;;3.40;0.80;;;26.70;50.30;;;-144.05;26.27;125687.94;6187749;23;20344;-87
2022/06/16 10:48:29;;;;;;;1.67;1.10;;;26.70;49.20;;;-144.05;26.55;125687.94;6188957;23;20011;-86
2022/06/16 10:51:16;;;;;;;2.15;0.70;;;26.80;50.10;;;-144.05;25.81;125687.94;6198226;23;20076;-89
2022/06/16 10:54:25;;;;;;;1.90;0.70;;;27.40;48.80;;;-144.05;25.61;125687.94;6209569;23;20001;-87
2022/06/16 10:57:13;;;;;;;2.55;0.95;;;27.70;48.70;;;-144.05;25.22;125687.94;6189209;23;20005;-86
2022/06/16 11:00:04;;;;;;;4.15;0.80;;;28.00;47.80;;;-144.05;25.63;125687.94;6190454;23;20506;-86
2022/06/16 11:02:35;;;;;;;1.67;0.90;;;27.70;48.40;;;-144.05;26.00;125687.94;6189915;23;20068;-85
2022/06/16 11:05:14;;;;;;;3.05;1.33;;;27.50;48.70;;;-144.05;26.05;125687.94;6191273;23;20001;-85
2022/06/16 11:07:45;;;;;;;2.45;1.02;;;27.40;48.10;;;-144.05;25.59;125687.94;6197016;23;20060;-87
2022/06/16 11:10:29;;;;;;;2.88;1.02;;;27.60;47.40;;;-144.05;25.86;125687.94;6201863;23;20001;-88
2022/06/16 11:12:55;;;;;;;1.95;1.08;;;27.90;48.20;;;-144.05;25.87;125687.94;6194774;23;20005;-86
2022/06/16 11:15:39;;;;;;;3.38;2.03;;;27.80;48.30;;;-144.05;25.89;125687.94;6189642;23;20017;-87